sensor_id;sensor_type;location;lat;lon;timestamp;P1;durP1;ratioP1;P2;durP2;ratioP2
1446;SDS011;717;51.522;7.266;2023-12-29T00:00:48;3.78;;;0.98;;
1446;SDS011;717;51.522;7.266;2023-12-29T00:03:18;3.72;;;0.93;;
1446;SDS011;717;51.522;7.266;2023-12-29T00:05:48;3.13;;;0.57;;
1446;SDS011;717;51.522;7.266;2023-12-29T00:08:18;5.13;;;1.25;;
1446;SDS011;717;51.522;7.266;2023-12-29T00:10:50;3.33;;;1.52;;
1446;SDS011;717;51.522;7.266;2023-12-29T00:13:20;4.18;;;0.80;;
1446;SDS011;717;51.522;7.266;2023-12-29T00:15:51;6.93;;;0.85;;
1446;SDS011;717;51.522;7.266;2023-12-29T00:18:22;3.70;;;0.93;;
1446;SDS011;717;51.522;7.266;2023-12-29T00:20:52;4.57;;;0.70;;
1446;SDS011;717;51.522;7.266;2023-12-29T00:23:33;1.98;;;0.80;;
1446;SDS011;717;51.522;7.266;2023-12-29T00:26:05;5.30;;;0.93;;
1446;SDS011;717;51.522;7.266;2023-12-29T00:28:36;6.90;;;1.33;;
1446;SDS011;717;51.522;7.266;2023-12-29T00:31:07;4.53;;;1.10;;
1446;SDS011;717;51.522;7.266;2023-12-29T00:33:37;7.18;;;1.15;;
1446;SDS011;717;51.522;7.266;2023-12-29T00:36:07;3.70;;;0.77;;
1446;SDS011;717;51.522;7.266;2023-12-29T00:38:37;2.67;;;0.75;;
1446;SDS011;717;51.522;7.266;2023-12-29T00:41:10;4.70;;;1.15;;
1446;SDS011;717;51.522;7.266;2023-12-29T00:43:40;4.18;;;0.80;;
1446;SDS011;717;51.522;7.266;2023-12-29T00:46:10;4.63;;;0.82;;
1446;SDS011;717;51.522;7.266;2023-12-29T00:48:43;5.32;;;1.02;;
1446;SDS011;717;51.522;7.266;2023-12-29T00:51:14;4.10;;;0.90;;
1446;SDS011;717;51.522;7.266;2023-12-29T00:53:44;4.03;;;0.88;;
1446;SDS011;717;51.522;7.266;2023-12-29T00:56:16;3.55;;;0.63;;
1446;SDS011;717;51.522;7.266;2023-12-29T00:58:47;2.10;;;0.85;;
1446;SDS011;717;51.522;7.266;2023-12-29T01:01:18;3.00;;;1.13;;
1446;SDS011;717;51.522;7.266;2023-12-29T01:03:48;3.95;;;0.80;;
1446;SDS011;717;51.522;7.266;2023-12-29T01:06:21;3.03;;;0.60;;
1446;SDS011;717;51.522;7.266;2023-12-29T01:08:53;2.65;;;0.88;;
1446;SDS011;717;51.522;7.266;2023-12-29T01:11:26;3.70;;;1.00;;
1446;SDS011;717;51.522;7.266;2023-12-29T01:13:56;3.35;;;0.60;;
1446;SDS011;717;51.522;7.266;2023-12-29T01:16:25;4.18;;;1.05;;
1446;SDS011;717;51.522;7.266;2023-12-29T01:18:56;1.77;;;0.60;;
1446;SDS011;717;51.522;7.266;2023-12-29T01:21:26;4.13;;;0.80;;
1446;SDS011;717;51.522;7.266;2023-12-29T01:24:00;4.82;;;0.80;;
1446;SDS011;717;51.522;7.266;2023-12-29T01:26:33;3.28;;;0.80;;
1446;SDS011;717;51.522;7.266;2023-12-29T01:29:06;3.28;;;0.80;;
1446;SDS011;717;51.522;7.266;2023-12-29T01:31:36;2.97;;;0.95;;
1446;SDS011;717;51.522;7.266;2023-12-29T01:34:06;1.92;;;0.73;;
1446;SDS011;717;51.522;7.266;2023-12-29T01:36:36;3.85;;;0.88;;
1446;SDS011;717;51.522;7.266;2023-12-29T01:39:06;4.03;;;1.45;;
1446;SDS011;717;51.522;7.266;2023-12-29T01:41:39;2.33;;;0.70;;
1446;SDS011;717;51.522;7.266;2023-12-29T01:46:58;3.60;;;0.77;;
1446;SDS011;717;51.522;7.266;2023-12-29T01:49:29;2.72;;;0.50;;
1446;SDS011;717;51.522;7.266;2023-12-29T01:52:00;4.07;;;1.17;;
1446;SDS011;717;51.522;7.266;2023-12-29T01:54:32;3.47;;;1.00;;
1446;SDS011;717;51.522;7.266;2023-12-29T01:57:10;7.43;;;1.05;;
1446;SDS011;717;51.522;7.266;2023-12-29T01:59:41;4.38;;;0.90;;
1446;SDS011;717;51.522;7.266;2023-12-29T02:02:11;2.58;;;0.70;;
1446;SDS011;717;51.522;7.266;2023-12-29T02:04:42;4.13;;;1.00;;
1446;SDS011;717;51.522;7.266;2023-12-29T02:07:12;4.63;;;1.23;;
1446;SDS011;717;51.522;7.266;2023-12-29T02:09:42;3.63;;;1.00;;
1446;SDS011;717;51.522;7.266;2023-12-29T02:12:17;3.30;;;0.93;;
1446;SDS011;717;51.522;7.266;2023-12-29T02:14:48;5.47;;;1.08;;
1446;SDS011;717;51.522;7.266;2023-12-29T02:17:20;6.68;;;0.90;;
1446;SDS011;717;51.522;7.266;2023-12-29T02:19:55;4.78;;;1.02;;
1446;SDS011;717;51.522;7.266;2023-12-29T02:22:27;3.88;;;0.85;;
1446;SDS011;717;51.522;7.266;2023-12-29T02:25:03;4.45;;;1.20;;
1446;SDS011;717;51.522;7.266;2023-12-29T02:27:37;7.00;;;1.52;;
1446;SDS011;717;51.522;7.266;2023-12-29T02:30:18;3.67;;;1.27;;
1446;SDS011;717;51.522;7.266;2023-12-29T02:32:52;5.65;;;1.60;;
1446;SDS011;717;51.522;7.266;2023-12-29T02:35:25;6.80;;;1.38;;
1446;SDS011;717;51.522;7.266;2023-12-29T02:37:57;4.53;;;1.48;;
1446;SDS011;717;51.522;7.266;2023-12-29T02:40:31;4.13;;;1.15;;
1446;SDS011;717;51.522;7.266;2023-12-29T02:43:02;3.13;;;1.20;;
1446;SDS011;717;51.522;7.266;2023-12-29T02:45:32;4.60;;;1.23;;
1446;SDS011;717;51.522;7.266;2023-12-29T02:48:02;6.53;;;1.30;;
1446;SDS011;717;51.522;7.266;2023-12-29T02:50:33;3.70;;;1.30;;
1446;SDS011;717;51.522;7.266;2023-12-29T02:53:03;5.15;;;1.02;;
1446;SDS011;717;51.522;7.266;2023-12-29T02:55:36;5.57;;;1.60;;
1446;SDS011;717;51.522;7.266;2023-12-29T02:58:06;6.15;;;1.38;;
1446;SDS011;717;51.522;7.266;2023-12-29T03:00:35;4.10;;;1.02;;
1446;SDS011;717;51.522;7.266;2023-12-29T03:03:07;7.68;;;1.38;;
1446;SDS011;717;51.522;7.266;2023-12-29T03:05:37;6.47;;;1.30;;
1446;SDS011;717;51.522;7.266;2023-12-29T03:08:07;6.25;;;1.50;;
1446;SDS011;717;51.522;7.266;2023-12-29T03:10:41;4.60;;;1.23;;
1446;SDS011;717;51.522;7.266;2023-12-29T03:13:11;6.95;;;1.40;;
1446;SDS011;717;51.522;7.266;2023-12-29T03:15:41;4.90;;;1.58;;
1446;SDS011;717;51.522;7.266;2023-12-29T03:18:11;5.57;;;1.17;;
1446;SDS011;717;51.522;7.266;2023-12-29T03:20:41;7.60;;;1.40;;
1446;SDS011;717;51.522;7.266;2023-12-29T03:23:11;10.23;;;1.70;;
1446;SDS011;717;51.522;7.266;2023-12-29T03:25:44;8.50;;;1.60;;
1446;SDS011;717;51.522;7.266;2023-12-29T03:28:14;4.60;;;1.40;;
1446;SDS011;717;51.522;7.266;2023-12-29T03:30:44;7.90;;;1.67;;
1446;SDS011;717;51.522;7.266;2023-12-29T03:33:14;4.07;;;1.20;;
1446;SDS011;717;51.522;7.266;2023-12-29T03:35:44;7.15;;;1.65;;
1446;SDS011;717;51.522;7.266;2023-12-29T03:38:14;5.90;;;1.27;;
1446;SDS011;717;51.522;7.266;2023-12-29T03:40:47;4.60;;;1.05;;
1446;SDS011;717;51.522;7.266;2023-12-29T03:43:18;9.57;;;1.73;;
1446;SDS011;717;51.522;7.266;2023-12-29T03:45:48;3.97;;;1.02;;
1446;SDS011;717;51.522;7.266;2023-12-29T03:48:18;4.43;;;1.45;;
1446;SDS011;717;51.522;7.266;2023-12-29T03:50:48;7.97;;;2.25;;
1446;SDS011;717;51.522;7.266;2023-12-29T03:53:18;6.53;;;1.58;;
1446;SDS011;717;51.522;7.266;2023-12-29T03:55:51;4.82;;;1.70;;
1446;SDS011;717;51.522;7.266;2023-12-29T03:58:21;4.78;;;1.40;;
1446;SDS011;717;51.522;7.266;2023-12-29T04:00:51;5.68;;;1.27;;
1446;SDS011;717;51.522;7.266;2023-12-29T04:03:21;3.60;;;1.60;;
1446;SDS011;717;51.522;7.266;2023-12-29T04:05:51;4.15;;;1.42;;
1446;SDS011;717;51.522;7.266;2023-12-29T04:08:21;6.30;;;1.15;;
1446;SDS011;717;51.522;7.266;2023-12-29T04:10:53;4.53;;;1.35;;
1446;SDS011;717;51.522;7.266;2023-12-29T04:13:23;5.30;;;1.20;;
1446;SDS011;717;51.522;7.266;2023-12-29T04:15:53;4.05;;;1.02;;
1446;SDS011;717;51.522;7.266;2023-12-29T04:18:24;5.40;;;1.17;;
1446;SDS011;717;51.522;7.266;2023-12-29T04:20:55;6.63;;;1.33;;
1446;SDS011;717;51.522;7.266;2023-12-29T04:23:25;4.80;;;1.20;;
1446;SDS011;717;51.522;7.266;2023-12-29T04:25:57;6.90;;;1.40;;
1446;SDS011;717;51.522;7.266;2023-12-29T04:28:27;4.40;;;1.00;;
1446;SDS011;717;51.522;7.266;2023-12-29T04:30:57;4.20;;;1.20;;
1446;SDS011;717;51.522;7.266;2023-12-29T04:33:28;5.10;;;1.02;;
1446;SDS011;717;51.522;7.266;2023-12-29T04:35:58;4.78;;;1.10;;
1446;SDS011;717;51.522;7.266;2023-12-29T04:38:28;3.45;;;0.95;;
1446;SDS011;717;51.522;7.266;2023-12-29T04:41:03;3.30;;;1.17;;
1446;SDS011;717;51.522;7.266;2023-12-29T04:43:33;4.50;;;1.00;;
1446;SDS011;717;51.522;7.266;2023-12-29T04:46:03;5.38;;;1.13;;
1446;SDS011;717;51.522;7.266;2023-12-29T04:48:34;6.82;;;1.15;;
1446;SDS011;717;51.522;7.266;2023-12-29T04:51:04;5.20;;;0.98;;
1446;SDS011;717;51.522;7.266;2023-12-29T04:53:34;5.93;;;1.23;;
1446;SDS011;717;51.522;7.266;2023-12-29T04:56:06;2.90;;;1.20;;
1446;SDS011;717;51.522;7.266;2023-12-29T04:58:37;7.13;;;1.10;;
1446;SDS011;717;51.522;7.266;2023-12-29T05:01:07;4.40;;;0.80;;
1446;SDS011;717;51.522;7.266;2023-12-29T05:03:37;3.22;;;0.98;;
1446;SDS011;717;51.522;7.266;2023-12-29T05:06:07;4.22;;;1.40;;
1446;SDS011;717;51.522;7.266;2023-12-29T05:08:37;4.50;;;1.15;;
1446;SDS011;717;51.522;7.266;2023-12-29T05:11:09;2.20;;;0.88;;
1446;SDS011;717;51.522;7.266;2023-12-29T05:13:39;7.85;;;1.35;;
1446;SDS011;717;51.522;7.266;2023-12-29T05:16:09;6.50;;;1.10;;
1446;SDS011;717;51.522;7.266;2023-12-29T05:18:39;3.55;;;0.98;;
1446;SDS011;717;51.522;7.266;2023-12-29T05:21:13;3.97;;;1.30;;
1446;SDS011;717;51.522;7.266;2023-12-29T05:23:44;4.60;;;1.30;;
1446;SDS011;717;51.522;7.266;2023-12-29T05:26:17;4.38;;;1.80;;
1446;SDS011;717;51.522;7.266;2023-12-29T05:28:47;4.72;;;1.20;;
1446;SDS011;717;51.522;7.266;2023-12-29T05:31:17;6.40;;;1.30;;
1446;SDS011;717;51.522;7.266;2023-12-29T05:33:47;5.38;;;1.48;;
1446;SDS011;717;51.522;7.266;2023-12-29T05:36:18;7.80;;;1.10;;
1446;SDS011;717;51.522;7.266;2023-12-29T05:38:48;4.63;;;1.13;;
1446;SDS011;717;51.522;7.266;2023-12-29T05:41:20;5.32;;;0.90;;
1446;SDS011;717;51.522;7.266;2023-12-29T05:43:50;5.63;;;1.40;;
1446;SDS011;717;51.522;7.266;2023-12-29T05:46:20;5.60;;;1.63;;
1446;SDS011;717;51.522;7.266;2023-12-29T05:48:50;5.97;;;0.98;;
1446;SDS011;717;51.522;7.266;2023-12-29T05:51:21;3.67;;;1.00;;
1446;SDS011;717;51.522;7.266;2023-12-29T05:53:51;6.93;;;1.30;;
1446;SDS011;717;51.522;7.266;2023-12-29T05:56:24;3.63;;;0.90;;
1446;SDS011;717;51.522;7.266;2023-12-29T05:58:54;5.35;;;1.50;;
1446;SDS011;717;51.522;7.266;2023-12-29T06:01:24;6.43;;;1.13;;
1446;SDS011;717;51.522;7.266;2023-12-29T06:03:54;2.70;;;1.08;;
1446;SDS011;717;51.522;7.266;2023-12-29T06:06:24;5.53;;;1.48;;
1446;SDS011;717;51.522;7.266;2023-12-29T06:08:54;4.18;;;0.90;;
1446;SDS011;717;51.522;7.266;2023-12-29T06:11:26;3.83;;;1.10;;
1446;SDS011;717;51.522;7.266;2023-12-29T06:13:56;3.97;;;1.10;;
1446;SDS011;717;51.522;7.266;2023-12-29T06:16:27;5.40;;;1.08;;
1446;SDS011;717;51.522;7.266;2023-12-29T06:18:57;5.97;;;1.27;;
1446;SDS011;717;51.522;7.266;2023-12-29T06:21:27;5.32;;;1.00;;
1446;SDS011;717;51.522;7.266;2023-12-29T06:23:57;3.53;;;1.10;;
1446;SDS011;717;51.522;7.266;2023-12-29T06:26:29;5.10;;;1.35;;
1446;SDS011;717;51.522;7.266;2023-12-29T06:28:59;4.65;;;1.10;;
1446;SDS011;717;51.522;7.266;2023-12-29T06:31:29;5.68;;;1.30;;
1446;SDS011;717;51.522;7.266;2023-12-29T06:33:59;4.03;;;0.90;;
1446;SDS011;717;51.522;7.266;2023-12-29T06:36:30;5.07;;;1.20;;
1446;SDS011;717;51.522;7.266;2023-12-29T06:39:00;5.97;;;1.48;;
1446;SDS011;717;51.522;7.266;2023-12-29T06:41:32;5.38;;;1.50;;
1446;SDS011;717;51.522;7.266;2023-12-29T06:44:02;4.65;;;1.00;;
1446;SDS011;717;51.522;7.266;2023-12-29T06:46:32;6.45;;;0.95;;
1446;SDS011;717;51.522;7.266;2023-12-29T06:49:02;5.22;;;1.42;;
1446;SDS011;717;51.522;7.266;2023-12-29T06:51:32;4.20;;;0.70;;
1446;SDS011;717;51.522;7.266;2023-12-29T06:54:02;3.72;;;0.90;;
1446;SDS011;717;51.522;7.266;2023-12-29T06:56:35;2.40;;;1.10;;
1446;SDS011;717;51.522;7.266;2023-12-29T06:59:06;6.10;;;1.02;;
1446;SDS011;717;51.522;7.266;2023-12-29T07:01:38;5.93;;;1.02;;
1446;SDS011;717;51.522;7.266;2023-12-29T07:04:09;4.05;;;1.00;;
1446;SDS011;717;51.522;7.266;2023-12-29T07:06:40;5.45;;;1.00;;
1446;SDS011;717;51.522;7.266;2023-12-29T07:09:10;3.95;;;0.80;;
1446;SDS011;717;51.522;7.266;2023-12-29T07:11:46;3.22;;;0.98;;
1446;SDS011;717;51.522;7.266;2023-12-29T07:14:16;3.38;;;0.93;;
1446;SDS011;717;51.522;7.266;2023-12-29T07:16:46;6.68;;;1.50;;
1446;SDS011;717;51.522;7.266;2023-12-29T07:19:16;4.45;;;1.42;;
1446;SDS011;717;51.522;7.266;2023-12-29T07:21:47;5.97;;;1.05;;
1446;SDS011;717;51.522;7.266;2023-12-29T07:24:17;4.80;;;1.35;;
1446;SDS011;717;51.522;7.266;2023-12-29T07:26:49;4.75;;;1.00;;
1446;SDS011;717;51.522;7.266;2023-12-29T07:29:19;6.15;;;1.08;;
1446;SDS011;717;51.522;7.266;2023-12-29T07:31:49;2.55;;;1.10;;
1446;SDS011;717;51.522;7.266;2023-12-29T07:34:19;4.65;;;1.23;;
1446;SDS011;717;51.522;7.266;2023-12-29T07:36:49;4.50;;;0.82;;
1446;SDS011;717;51.522;7.266;2023-12-29T07:39:20;4.55;;;1.35;;
1446;SDS011;717;51.522;7.266;2023-12-29T07:41:52;5.78;;;1.33;;
1446;SDS011;717;51.522;7.266;2023-12-29T07:44:29;6.20;;;1.00;;
1446;SDS011;717;51.522;7.266;2023-12-29T07:46:59;5.10;;;1.00;;
1446;SDS011;717;51.522;7.266;2023-12-29T07:49:29;4.43;;;0.63;;
1446;SDS011;717;51.522;7.266;2023-12-29T07:51:59;4.80;;;1.10;;
1446;SDS011;717;51.522;7.266;2023-12-29T07:54:29;3.38;;;1.05;;
1446;SDS011;717;51.522;7.266;2023-12-29T07:57:02;4.47;;;0.80;;
1446;SDS011;717;51.522;7.266;2023-12-29T07:59:32;5.32;;;1.58;;
1446;SDS011;717;51.522;7.266;2023-12-29T08:02:02;2.58;;;0.85;;
1446;SDS011;717;51.522;7.266;2023-12-29T08:04:32;5.35;;;1.20;;
1446;SDS011;717;51.522;7.266;2023-12-29T08:07:03;4.88;;;1.20;;
1446;SDS011;717;51.522;7.266;2023-12-29T08:09:33;5.25;;;1.45;;
1446;SDS011;717;51.522;7.266;2023-12-29T08:12:06;3.22;;;1.10;;
1446;SDS011;717;51.522;7.266;2023-12-29T08:14:37;4.28;;;1.10;;
1446;SDS011;717;51.522;7.266;2023-12-29T08:17:06;8.10;;;1.10;;
1446;SDS011;717;51.522;7.266;2023-12-29T08:19:37;4.15;;;1.20;;
1446;SDS011;717;51.522;7.266;2023-12-29T08:22:07;3.40;;;1.00;;
1446;SDS011;717;51.522;7.266;2023-12-29T08:24:39;4.95;;;1.30;;
1446;SDS011;717;51.522;7.266;2023-12-29T08:27:14;4.65;;;0.93;;
1446;SDS011;717;51.522;7.266;2023-12-29T08:29:44;4.63;;;0.98;;
1446;SDS011;717;51.522;7.266;2023-12-29T08:32:14;3.38;;;1.15;;
1446;SDS011;717;51.522;7.266;2023-12-29T08:34:44;4.97;;;1.10;;
1446;SDS011;717;51.522;7.266;2023-12-29T08:37:14;4.10;;;1.02;;
1446;SDS011;717;51.522;7.266;2023-12-29T08:39:47;4.95;;;0.95;;
1446;SDS011;717;51.522;7.266;2023-12-29T08:42:19;4.25;;;1.17;;
1446;SDS011;717;51.522;7.266;2023-12-29T08:44:51;5.25;;;0.95;;
1446;SDS011;717;51.522;7.266;2023-12-29T08:47:20;4.93;;;1.13;;
1446;SDS011;717;51.522;7.266;2023-12-29T08:49:48;2.33;;;0.75;;
1446;SDS011;717;51.522;7.266;2023-12-29T08:52:18;4.65;;;0.90;;
1446;SDS011;717;51.522;7.266;2023-12-29T08:54:48;5.82;;;1.05;;
1446;SDS011;717;51.522;7.266;2023-12-29T08:57:20;2.55;;;0.82;;
1446;SDS011;717;51.522;7.266;2023-12-29T08:59:50;4.90;;;0.73;;
1446;SDS011;717;51.522;7.266;2023-12-29T09:02:20;4.05;;;0.80;;
1446;SDS011;717;51.522;7.266;2023-12-29T09:04:50;6.80;;;1.20;;
1446;SDS011;717;51.522;7.266;2023-12-29T09:07:20;3.45;;;0.90;;
1446;SDS011;717;51.522;7.266;2023-12-29T09:09:50;2.25;;;0.90;;
1446;SDS011;717;51.522;7.266;2023-12-29T09:12:23;2.72;;;0.70;;
1446;SDS011;717;51.522;7.266;2023-12-29T09:14:52;1.70;;;0.88;;
1446;SDS011;717;51.522;7.266;2023-12-29T09:17:22;1.70;;;0.82;;
1446;SDS011;717;51.522;7.266;2023-12-29T09:19:52;2.83;;;0.90;;
1446;SDS011;717;51.522;7.266;2023-12-29T09:22:35;1.42;;;0.70;;
1446;SDS011;717;51.522;7.266;2023-12-29T09:25:05;2.28;;;0.73;;
1446;SDS011;717;51.522;7.266;2023-12-29T09:27:38;3.63;;;0.40;;
1446;SDS011;717;51.522;7.266;2023-12-29T09:30:09;2.40;;;0.55;;
1446;SDS011;717;51.522;7.266;2023-12-29T09:32:39;1.65;;;0.63;;
1446;SDS011;717;51.522;7.266;2023-12-29T09:35:10;2.65;;;0.50;;
1446;SDS011;717;51.522;7.266;2023-12-29T09:37:40;3.08;;;0.52;;
1446;SDS011;717;51.522;7.266;2023-12-29T09:40:10;2.20;;;0.50;;
1446;SDS011;717;51.522;7.266;2023-12-29T09:42:44;1.20;;;0.60;;
1446;SDS011;717;51.522;7.266;2023-12-29T09:45:14;2.28;;;0.43;;
1446;SDS011;717;51.522;7.266;2023-12-29T09:47:51;3.50;;;1.08;;
1446;SDS011;717;51.522;7.266;2023-12-29T09:50:22;1.00;;;0.45;;
1446;SDS011;717;51.522;7.266;2023-12-29T09:52:53;0.98;;;0.32;;
1446;SDS011;717;51.522;7.266;2023-12-29T09:55:24;1.40;;;0.40;;
1446;SDS011;717;51.522;7.266;2023-12-29T09:57:57;1.65;;;0.57;;
1446;SDS011;717;51.522;7.266;2023-12-29T10:00:29;1.25;;;0.40;;
1446;SDS011;717;51.522;7.266;2023-12-29T10:03:00;0.88;;;0.40;;
1446;SDS011;717;51.522;7.266;2023-12-29T10:05:30;1.23;;;0.40;;
1446;SDS011;717;51.522;7.266;2023-12-29T10:08:01;0.55;;;0.20;;
1446;SDS011;717;51.522;7.266;2023-12-29T10:10:34;1.23;;;0.35;;
1446;SDS011;717;51.522;7.266;2023-12-29T10:13:10;0.93;;;0.35;;
1446;SDS011;717;51.522;7.266;2023-12-29T10:15:42;1.05;;;0.30;;
1446;SDS011;717;51.522;7.266;2023-12-29T10:18:19;1.70;;;0.40;;
1446;SDS011;717;51.522;7.266;2023-12-29T10:20:58;1.88;;;0.60;;
1446;SDS011;717;51.522;7.266;2023-12-29T10:23:32;1.25;;;0.50;;
1446;SDS011;717;51.522;7.266;2023-12-29T10:26:05;1.27;;;0.50;;
1446;SDS011;717;51.522;7.266;2023-12-29T10:28:42;0.77;;;0.30;;
1446;SDS011;717;51.522;7.266;2023-12-29T10:31:13;1.17;;;0.30;;
1446;SDS011;717;51.522;7.266;2023-12-29T10:33:45;1.52;;;0.50;;
1446;SDS011;717;51.522;7.266;2023-12-29T10:36:18;1.73;;;0.60;;
1446;SDS011;717;51.522;7.266;2023-12-29T10:38:48;1.08;;;0.50;;
1446;SDS011;717;51.522;7.266;2023-12-29T10:41:34;0.95;;;0.30;;
1446;SDS011;717;51.522;7.266;2023-12-29T10:44:08;0.98;;;0.40;;
1446;SDS011;717;51.522;7.266;2023-12-29T10:46:38;0.95;;;0.38;;
1446;SDS011;717;51.522;7.266;2023-12-29T10:49:09;0.70;;;0.20;;
1446;SDS011;717;51.522;7.266;2023-12-29T10:51:40;0.40;;;0.30;;
1446;SDS011;717;51.522;7.266;2023-12-29T10:54:11;0.90;;;0.40;;
1446;SDS011;717;51.522;7.266;2023-12-29T10:57:00;0.60;;;0.50;;
1446;SDS011;717;51.522;7.266;2023-12-29T10:59:33;1.73;;;0.40;;
1446;SDS011;717;51.522;7.266;2023-12-29T11:02:03;1.48;;;0.50;;
1446;SDS011;717;51.522;7.266;2023-12-29T11:04:35;0.50;;;0.50;;
1446;SDS011;717;51.522;7.266;2023-12-29T11:07:08;1.17;;;0.60;;
1446;SDS011;717;51.522;7.266;2023-12-29T11:09:41;2.15;;;0.40;;
1446;SDS011;717;51.522;7.266;2023-12-29T11:12:13;2.20;;;1.08;;
1446;SDS011;717;51.522;7.266;2023-12-29T11:14:46;1.42;;;0.73;;
1446;SDS011;717;51.522;7.266;2023-12-29T11:17:16;2.20;;;0.70;;
1446;SDS011;717;51.522;7.266;2023-12-29T11:19:47;1.25;;;0.60;;
1446;SDS011;717;51.522;7.266;2023-12-29T11:22:18;0.88;;;0.47;;
1446;SDS011;717;51.522;7.266;2023-12-29T11:24:50;1.52;;;0.45;;
1446;SDS011;717;51.522;7.266;2023-12-29T11:27:20;3.42;;;0.68;;
1446;SDS011;717;51.522;7.266;2023-12-29T11:29:54;1.23;;;0.40;;
1446;SDS011;717;51.522;7.266;2023-12-29T11:32:27;0.65;;;0.40;;
1446;SDS011;717;51.522;7.266;2023-12-29T11:35:12;1.70;;;0.63;;
1446;SDS011;717;51.522;7.266;2023-12-29T11:37:49;1.30;;;0.45;;
1446;SDS011;717;51.522;7.266;2023-12-29T11:40:30;1.27;;;0.60;;
1446;SDS011;717;51.522;7.266;2023-12-29T11:43:12;1.90;;;0.70;;
1446;SDS011;717;51.522;7.266;2023-12-29T11:45:49;3.45;;;0.70;;
1446;SDS011;717;51.522;7.266;2023-12-29T11:51:29;1.20;;;0.40;;
1446;SDS011;717;51.522;7.266;2023-12-29T11:54:01;2.60;;;0.75;;
1446;SDS011;717;51.522;7.266;2023-12-29T11:56:33;2.63;;;0.65;;
1446;SDS011;717;51.522;7.266;2023-12-29T11:59:14;3.60;;;0.98;;
1446;SDS011;717;51.522;7.266;2023-12-29T12:01:51;5.50;;;1.20;;
1446;SDS011;717;51.522;7.266;2023-12-29T12:04:38;2.47;;;1.23;;
1446;SDS011;717;51.522;7.266;2023-12-29T12:07:16;2.15;;;0.90;;
1446;SDS011;717;51.522;7.266;2023-12-29T12:09:46;2.03;;;0.90;;
1446;SDS011;717;51.522;7.266;2023-12-29T12:18:04;2.38;;;1.00;;
1446;SDS011;717;51.522;7.266;2023-12-29T12:20:36;2.00;;;0.75;;
1446;SDS011;717;51.522;7.266;2023-12-29T12:23:10;1.95;;;0.70;;
1446;SDS011;717;51.522;7.266;2023-12-29T12:25:41;2.15;;;0.80;;
1446;SDS011;717;51.522;7.266;2023-12-29T12:28:13;1.13;;;0.70;;
1446;SDS011;717;51.522;7.266;2023-12-29T12:30:44;1.45;;;0.73;;
1446;SDS011;717;51.522;7.266;2023-12-29T12:33:17;1.42;;;0.70;;
1446;SDS011;717;51.522;7.266;2023-12-29T12:35:57;1.65;;;0.70;;
1446;SDS011;717;51.522;7.266;2023-12-29T12:38:28;1.30;;;0.70;;
1446;SDS011;717;51.522;7.266;2023-12-29T12:41:09;2.10;;;0.80;;
1446;SDS011;717;51.522;7.266;2023-12-29T12:43:43;2.03;;;0.90;;
1446;SDS011;717;51.522;7.266;2023-12-29T12:46:20;3.35;;;1.02;;
1446;SDS011;717;51.522;7.266;2023-12-29T12:48:55;3.03;;;1.00;;
1446;SDS011;717;51.522;7.266;2023-12-29T12:51:25;4.35;;;1.35;;
1446;SDS011;717;51.522;7.266;2023-12-29T12:53:56;1.92;;;1.20;;
1446;SDS011;717;51.522;7.266;2023-12-29T12:56:26;2.28;;;1.08;;
1446;SDS011;717;51.522;7.266;2023-12-29T12:58:57;2.85;;;0.98;;
1446;SDS011;717;51.522;7.266;2023-12-29T13:01:28;2.63;;;1.25;;
1446;SDS011;717;51.522;7.266;2023-12-29T13:04:02;3.72;;;0.98;;
1446;SDS011;717;51.522;7.266;2023-12-29T13:06:34;3.22;;;1.02;;
1446;SDS011;717;51.522;7.266;2023-12-29T13:09:08;3.03;;;1.08;;
1446;SDS011;717;51.522;7.266;2023-12-29T13:11:46;1.20;;;1.10;;
1446;SDS011;717;51.522;7.266;2023-12-29T13:14:19;1.02;;;0.88;;
1446;SDS011;717;51.522;7.266;2023-12-29T13:16:52;2.10;;;0.60;;
1446;SDS011;717;51.522;7.266;2023-12-29T13:19:25;1.38;;;0.60;;
1446;SDS011;717;51.522;7.266;2023-12-29T13:21:55;1.88;;;0.65;;
1446;SDS011;717;51.522;7.266;2023-12-29T13:24:26;2.67;;;0.70;;
1446;SDS011;717;51.522;7.266;2023-12-29T13:27:02;1.45;;;0.82;;
1446;SDS011;717;51.522;7.266;2023-12-29T13:29:34;1.58;;;0.68;;
1446;SDS011;717;51.522;7.266;2023-12-29T13:32:07;2.67;;;0.85;;
1446;SDS011;717;51.522;7.266;2023-12-29T13:34:46;2.58;;;0.80;;
1446;SDS011;717;51.522;7.266;2023-12-29T13:37:23;2.05;;;0.60;;
1446;SDS011;717;51.522;7.266;2023-12-29T13:40:00;2.30;;;0.60;;
1446;SDS011;717;51.522;7.266;2023-12-29T13:42:41;1.27;;;0.65;;
1446;SDS011;717;51.522;7.266;2023-12-29T13:45:16;1.80;;;0.60;;
1446;SDS011;717;51.522;7.266;2023-12-29T13:47:47;1.05;;;0.60;;
1446;SDS011;717;51.522;7.266;2023-12-29T13:50:20;2.45;;;0.60;;
1446;SDS011;717;51.522;7.266;2023-12-29T13:52:51;2.00;;;0.70;;
1446;SDS011;717;51.522;7.266;2023-12-29T13:55:21;2.90;;;1.00;;
1446;SDS011;717;51.522;7.266;2023-12-29T13:57:52;3.05;;;1.10;;
1446;SDS011;717;51.522;7.266;2023-12-29T14:00:23;1.23;;;0.88;;
1446;SDS011;717;51.522;7.266;2023-12-29T14:03:02;2.40;;;1.00;;
1446;SDS011;717;51.522;7.266;2023-12-29T14:05:43;1.30;;;1.05;;
1446;SDS011;717;51.522;7.266;2023-12-29T14:08:18;2.92;;;1.08;;
1446;SDS011;717;51.522;7.266;2023-12-29T14:10:53;1.50;;;1.00;;
1446;SDS011;717;51.522;7.266;2023-12-29T14:13:23;2.92;;;0.80;;
1446;SDS011;717;51.522;7.266;2023-12-29T14:15:54;2.08;;;0.80;;
1446;SDS011;717;51.522;7.266;2023-12-29T14:18:35;1.73;;;0.98;;
1446;SDS011;717;51.522;7.266;2023-12-29T14:21:32;3.67;;;1.10;;
1446;SDS011;717;51.522;7.266;2023-12-29T14:24:10;3.38;;;1.33;;
1446;SDS011;717;51.522;7.266;2023-12-29T14:26:42;0.98;;;0.60;;
1446;SDS011;717;51.522;7.266;2023-12-29T14:29:23;1.80;;;0.77;;
1446;SDS011;717;51.522;7.266;2023-12-29T14:31:53;2.90;;;1.10;;
1446;SDS011;717;51.522;7.266;2023-12-29T14:34:23;1.85;;;1.27;;
1446;SDS011;717;51.522;7.266;2023-12-29T14:36:57;3.00;;;0.90;;
1446;SDS011;717;51.522;7.266;2023-12-29T14:39:27;2.55;;;0.70;;
1446;SDS011;717;51.522;7.266;2023-12-29T14:41:58;1.98;;;0.88;;
1446;SDS011;717;51.522;7.266;2023-12-29T14:44:28;1.67;;;0.90;;
1446;SDS011;717;51.522;7.266;2023-12-29T14:47:00;3.10;;;0.98;;
1446;SDS011;717;51.522;7.266;2023-12-29T14:49:30;3.10;;;1.40;;
1446;SDS011;717;51.522;7.266;2023-12-29T14:52:03;2.05;;;0.75;;
1446;SDS011;717;51.522;7.266;2023-12-29T14:54:34;2.95;;;1.23;;
1446;SDS011;717;51.522;7.266;2023-12-29T14:57:04;2.58;;;1.00;;
1446;SDS011;717;51.522;7.266;2023-12-29T14:59:41;2.95;;;1.23;;
1446;SDS011;717;51.522;7.266;2023-12-29T15:02:11;3.92;;;2.35;;
1446;SDS011;717;51.522;7.266;2023-12-29T15:04:41;1.98;;;1.20;;
1446;SDS011;717;51.522;7.266;2023-12-29T15:07:13;4.47;;;0.70;;
1446;SDS011;717;51.522;7.266;2023-12-29T15:09:44;1.90;;;0.70;;
1446;SDS011;717;51.522;7.266;2023-12-29T15:12:14;3.22;;;2.28;;
1446;SDS011;717;51.522;7.266;2023-12-29T15:14:44;4.10;;;1.60;;
1446;SDS011;717;51.522;7.266;2023-12-29T15:17:14;1.17;;;0.65;;
1446;SDS011;717;51.522;7.266;2023-12-29T15:19:44;0.82;;;0.40;;
1446;SDS011;717;51.522;7.266;2023-12-29T15:22:17;2.72;;;0.80;;
1446;SDS011;717;51.522;7.266;2023-12-29T15:24:52;2.53;;;0.60;;
1446;SDS011;717;51.522;7.266;2023-12-29T15:27:22;2.42;;;0.80;;
1446;SDS011;717;51.522;7.266;2023-12-29T15:29:53;0.93;;;0.40;;
1446;SDS011;717;51.522;7.266;2023-12-29T15:32:23;1.52;;;0.50;;
1446;SDS011;717;51.522;7.266;2023-12-29T15:34:53;0.70;;;0.40;;
1446;SDS011;717;51.522;7.266;2023-12-29T15:37:26;0.82;;;0.32;;
1446;SDS011;717;51.522;7.266;2023-12-29T15:39:56;0.80;;;0.43;;
1446;SDS011;717;51.522;7.266;2023-12-29T15:42:26;1.13;;;0.40;;
1446;SDS011;717;51.522;7.266;2023-12-29T15:44:56;0.60;;;0.40;;
1446;SDS011;717;51.522;7.266;2023-12-29T15:47:26;1.90;;;0.60;;
1446;SDS011;717;51.522;7.266;2023-12-29T15:49:56;1.52;;;0.35;;
1446;SDS011;717;51.522;7.266;2023-12-29T15:52:29;0.20;;;0.20;;
1446;SDS011;717;51.522;7.266;2023-12-29T15:54:59;0.60;;;0.40;;
1446;SDS011;717;51.522;7.266;2023-12-29T15:57:29;0.90;;;0.30;;
1446;SDS011;717;51.522;7.266;2023-12-29T15:59:59;1.00;;;0.40;;
1446;SDS011;717;51.522;7.266;2023-12-29T16:02:36;0.82;;;0.50;;
1446;SDS011;717;51.522;7.266;2023-12-29T16:05:06;0.70;;;0.40;;
1446;SDS011;717;51.522;7.266;2023-12-29T16:07:39;0.55;;;0.40;;
1446;SDS011;717;51.522;7.266;2023-12-29T16:10:10;0.50;;;0.50;;